sensor_id;sensor_type;location;lat;lon;timestamp;P1;durP1;ratioP1;P2;durP2;ratioP2
16181;SDS011;8197;51.664;7.114;2023-11-21T00:01:45;32.10;;;8.07;;
16181;SDS011;8197;51.664;7.114;2023-11-21T00:06:50;27.07;;;7.50;;
16181;SDS011;8197;51.664;7.114;2023-11-21T00:11:53;29.83;;;7.90;;
16181;SDS011;8197;51.664;7.114;2023-11-21T00:16:55;27.70;;;9.30;;
16181;SDS011;8197;51.664;7.114;2023-11-21T00:22:00;27.73;;;7.93;;
16181;SDS011;8197;51.664;7.114;2023-11-21T00:27:03;38.87;;;8.60;;
16181;SDS011;8197;51.664;7.114;2023-11-21T00:32:07;34.90;;;10.40;;
16181;SDS011;8197;51.664;7.114;2023-11-21T00:37:11;29.37;;;8.63;;
16181;SDS011;8197;51.664;7.114;2023-11-21T00:42:14;33.10;;;8.10;;
16181;SDS011;8197;51.664;7.114;2023-11-21T00:47:17;32.10;;;9.77;;
16181;SDS011;8197;51.664;7.114;2023-11-21T00:52:22;26.50;;;9.27;;
16181;SDS011;8197;51.664;7.114;2023-11-21T00:57:24;32.60;;;10.20;;
16181;SDS011;8197;51.664;7.114;2023-11-21T01:02:27;35.60;;;11.57;;
16181;SDS011;8197;51.664;7.114;2023-11-21T01:07:31;28.40;;;9.50;;
16181;SDS011;8197;51.664;7.114;2023-11-21T01:12:34;38.63;;;11.07;;
16181;SDS011;8197;51.664;7.114;2023-11-21T01:17:38;35.43;;;11.33;;
16181;SDS011;8197;51.664;7.114;2023-11-21T01:22:43;35.10;;;12.00;;
16181;SDS011;8197;51.664;7.114;2023-11-21T01:27:46;23.47;;;6.40;;
16181;SDS011;8197;51.664;7.114;2023-11-21T01:32:49;28.07;;;10.27;;
16181;SDS011;8197;51.664;7.114;2023-11-21T01:37:53;30.47;;;10.17;;
16181;SDS011;8197;51.664;7.114;2023-11-21T01:42:56;31.23;;;10.80;;
16181;SDS011;8197;51.664;7.114;2023-11-21T01:48:00;33.30;;;11.90;;
16181;SDS011;8197;51.664;7.114;2023-11-21T01:53:05;35.47;;;10.40;;
16181;SDS011;8197;51.664;7.114;2023-11-21T01:58:08;31.10;;;8.07;;
16181;SDS011;8197;51.664;7.114;2023-11-21T02:03:13;27.10;;;10.50;;
16181;SDS011;8197;51.664;7.114;2023-11-21T02:08:17;29.40;;;10.10;;
16181;SDS011;8197;51.664;7.114;2023-11-21T02:13:20;33.60;;;10.10;;
16181;SDS011;8197;51.664;7.114;2023-11-21T02:18:23;34.13;;;10.80;;
16181;SDS011;8197;51.664;7.114;2023-11-21T02:23:28;24.53;;;7.50;;
16181;SDS011;8197;51.664;7.114;2023-11-21T02:28:31;31.70;;;10.87;;
16181;SDS011;8197;51.664;7.114;2023-11-21T02:33:34;25.07;;;6.90;;
16181;SDS011;8197;51.664;7.114;2023-11-21T02:38:38;33.17;;;11.70;;
16181;SDS011;8197;51.664;7.114;2023-11-21T02:43:41;29.17;;;10.27;;
16181;SDS011;8197;51.664;7.114;2023-11-21T02:48:44;29.00;;;8.27;;
16181;SDS011;8197;51.664;7.114;2023-11-21T02:53:49;25.90;;;8.30;;
16181;SDS011;8197;51.664;7.114;2023-11-21T02:58:52;27.87;;;7.83;;
16181;SDS011;8197;51.664;7.114;2023-11-21T03:03:55;32.50;;;11.90;;
16181;SDS011;8197;51.664;7.114;2023-11-21T03:08:59;31.43;;;11.07;;
16181;SDS011;8197;51.664;7.114;2023-11-21T03:14:02;30.50;;;11.77;;
16181;SDS011;8197;51.664;7.114;2023-11-21T03:19:06;34.60;;;11.27;;
16181;SDS011;8197;51.664;7.114;2023-11-21T03:24:10;24.47;;;7.40;;
16181;SDS011;8197;51.664;7.114;2023-11-21T03:29:13;33.83;;;11.70;;
16181;SDS011;8197;51.664;7.114;2023-11-21T03:34:19;34.33;;;11.80;;
16181;SDS011;8197;51.664;7.114;2023-11-21T03:39:26;34.40;;;11.50;;
16181;SDS011;8197;51.664;7.114;2023-11-21T03:44:30;33.90;;;11.87;;
16181;SDS011;8197;51.664;7.114;2023-11-21T03:49:33;26.33;;;7.40;;
16181;SDS011;8197;51.664;7.114;2023-11-21T03:54:37;22.83;;;6.70;;
16181;SDS011;8197;51.664;7.114;2023-11-21T03:59:40;36.70;;;12.40;;
16181;SDS011;8197;51.664;7.114;2023-11-21T04:04:44;31.73;;;11.60;;
16181;SDS011;8197;51.664;7.114;2023-11-21T04:09:48;30.93;;;11.80;;
16181;SDS011;8197;51.664;7.114;2023-11-21T04:14:51;32.40;;;11.70;;
16181;SDS011;8197;51.664;7.114;2023-11-21T04:19:56;31.00;;;11.23;;
16181;SDS011;8197;51.664;7.114;2023-11-21T04:25:00;33.73;;;12.47;;
16181;SDS011;8197;51.664;7.114;2023-11-21T04:30:04;32.60;;;12.10;;
16181;SDS011;8197;51.664;7.114;2023-11-21T04:35:08;37.33;;;13.57;;
16181;SDS011;8197;51.664;7.114;2023-11-21T04:40:12;33.73;;;13.30;;
16181;SDS011;8197;51.664;7.114;2023-11-21T04:45:15;29.63;;;11.80;;
16181;SDS011;8197;51.664;7.114;2023-11-21T04:50:18;31.80;;;12.10;;
16181;SDS011;8197;51.664;7.114;2023-11-21T04:55:22;34.47;;;12.03;;
16181;SDS011;8197;51.664;7.114;2023-11-21T05:00:25;40.00;;;12.47;;
16181;SDS011;8197;51.664;7.114;2023-11-21T05:05:28;32.57;;;13.07;;
16181;SDS011;8197;51.664;7.114;2023-11-21T05:10:33;36.87;;;13.07;;
16181;SDS011;8197;51.664;7.114;2023-11-21T05:15:39;35.83;;;12.00;;
16181;SDS011;8197;51.664;7.114;2023-11-21T05:20:42;36.20;;;11.20;;
16181;SDS011;8197;51.664;7.114;2023-11-21T05:25:47;32.27;;;12.10;;
16181;SDS011;8197;51.664;7.114;2023-11-21T05:30:50;37.87;;;12.87;;
16181;SDS011;8197;51.664;7.114;2023-11-21T05:36:14;34.77;;;12.43;;
16181;SDS011;8197;51.664;7.114;2023-11-21T05:41:18;33.10;;;12.90;;
16181;SDS011;8197;51.664;7.114;2023-11-21T05:46:22;32.40;;;11.63;;
16181;SDS011;8197;51.664;7.114;2023-11-21T05:51:25;36.83;;;13.00;;
16181;SDS011;8197;51.664;7.114;2023-11-21T05:56:29;36.17;;;14.90;;
16181;SDS011;8197;51.664;7.114;2023-11-21T06:01:32;40.90;;;16.47;;
16181;SDS011;8197;51.664;7.114;2023-11-21T06:06:35;35.13;;;14.07;;
16181;SDS011;8197;51.664;7.114;2023-11-21T06:11:40;37.00;;;13.60;;
16181;SDS011;8197;51.664;7.114;2023-11-21T06:16:43;32.73;;;9.70;;
16181;SDS011;8197;51.664;7.114;2023-11-21T06:21:46;34.60;;;13.20;;
16181;SDS011;8197;51.664;7.114;2023-11-21T06:26:50;34.87;;;13.30;;
16181;SDS011;8197;51.664;7.114;2023-11-21T06:31:53;35.27;;;14.33;;
16181;SDS011;8197;51.664;7.114;2023-11-21T06:36:57;38.57;;;16.40;;
16181;SDS011;8197;51.664;7.114;2023-11-21T06:42:01;37.97;;;14.20;;
16181;SDS011;8197;51.664;7.114;2023-11-21T06:47:05;42.37;;;16.40;;
16181;SDS011;8197;51.664;7.114;2023-11-21T06:52:08;38.63;;;14.67;;
16181;SDS011;8197;51.664;7.114;2023-11-21T06:57:13;55.30;;;22.27;;
16181;SDS011;8197;51.664;7.114;2023-11-21T07:02:16;58.67;;;17.97;;
16181;SDS011;8197;51.664;7.114;2023-11-21T07:07:20;42.77;;;16.60;;
16181;SDS011;8197;51.664;7.114;2023-11-21T07:12:24;53.13;;;18.60;;
16181;SDS011;8197;51.664;7.114;2023-11-21T07:17:27;44.53;;;17.47;;
16181;SDS011;8197;51.664;7.114;2023-11-21T07:22:30;44.47;;;18.30;;
16181;SDS011;8197;51.664;7.114;2023-11-21T07:27:34;60.67;;;21.20;;
16181;SDS011;8197;51.664;7.114;2023-11-21T07:32:38;48.63;;;16.70;;
16181;SDS011;8197;51.664;7.114;2023-11-21T07:37:42;43.27;;;16.80;;
16181;SDS011;8197;51.664;7.114;2023-11-21T07:42:46;39.30;;;15.63;;
16181;SDS011;8197;51.664;7.114;2023-11-21T07:47:51;43.23;;;13.93;;
16181;SDS011;8197;51.664;7.114;2023-11-21T07:52:54;40.93;;;17.60;;
16181;SDS011;8197;51.664;7.114;2023-11-21T07:57:58;37.70;;;14.20;;
16181;SDS011;8197;51.664;7.114;2023-11-21T08:03:01;34.33;;;13.70;;
16181;SDS011;8197;51.664;7.114;2023-11-21T08:08:05;34.07;;;13.80;;
16181;SDS011;8197;51.664;7.114;2023-11-21T08:13:10;33.53;;;14.57;;
16181;SDS011;8197;51.664;7.114;2023-11-21T08:18:16;34.40;;;14.27;;
16181;SDS011;8197;51.664;7.114;2023-11-21T08:23:19;33.57;;;13.17;;
16181;SDS011;8197;51.664;7.114;2023-11-21T08:28:23;32.03;;;11.90;;
16181;SDS011;8197;51.664;7.114;2023-11-21T08:33:27;30.17;;;12.30;;
16181;SDS011;8197;51.664;7.114;2023-11-21T08:38:30;33.57;;;12.20;;
16181;SDS011;8197;51.664;7.114;2023-11-21T08:43:35;38.30;;;13.13;;
16181;SDS011;8197;51.664;7.114;2023-11-21T08:48:41;33.13;;;10.00;;
16181;SDS011;8197;51.664;7.114;2023-11-21T08:53:45;29.60;;;10.50;;
16181;SDS011;8197;51.664;7.114;2023-11-21T08:58:50;30.97;;;10.97;;
16181;SDS011;8197;51.664;7.114;2023-11-21T09:03:54;28.87;;;10.40;;
16181;SDS011;8197;51.664;7.114;2023-11-21T09:08:56;29.53;;;10.13;;
16181;SDS011;8197;51.664;7.114;2023-11-21T09:14:01;41.57;;;15.40;;
16181;SDS011;8197;51.664;7.114;2023-11-21T09:19:04;29.13;;;10.40;;
16181;SDS011;8197;51.664;7.114;2023-11-21T09:24:07;39.97;;;15.90;;
16181;SDS011;8197;51.664;7.114;2023-11-21T09:29:12;29.60;;;10.40;;
16181;SDS011;8197;51.664;7.114;2023-11-21T09:34:15;32.10;;;11.47;;
16181;SDS011;8197;51.664;7.114;2023-11-21T09:39:18;29.87;;;12.90;;
16181;SDS011;8197;51.664;7.114;2023-11-21T09:44:26;33.60;;;12.40;;
16181;SDS011;8197;51.664;7.114;2023-11-21T09:49:36;29.53;;;10.40;;
16181;SDS011;8197;51.664;7.114;2023-11-21T09:54:41;25.63;;;10.03;;
16181;SDS011;8197;51.664;7.114;2023-11-21T09:59:45;32.13;;;11.57;;
16181;SDS011;8197;51.664;7.114;2023-11-21T10:04:51;31.27;;;12.03;;
16181;SDS011;8197;51.664;7.114;2023-11-21T10:09:55;35.50;;;14.50;;
16181;SDS011;8197;51.664;7.114;2023-11-21T10:15:00;44.00;;;16.63;;
16181;SDS011;8197;51.664;7.114;2023-11-21T10:20:07;31.20;;;11.30;;
16181;SDS011;8197;51.664;7.114;2023-11-21T10:25:14;39.03;;;17.40;;
16181;SDS011;8197;51.664;7.114;2023-11-21T10:30:20;32.37;;;12.03;;
16181;SDS011;8197;51.664;7.114;2023-11-21T10:35:23;46.27;;;18.80;;
16181;SDS011;8197;51.664;7.114;2023-11-21T10:40:27;31.43;;;12.30;;
16181;SDS011;8197;51.664;7.114;2023-11-21T10:45:31;34.10;;;12.90;;
16181;SDS011;8197;51.664;7.114;2023-11-21T10:50:35;34.40;;;14.07;;
16181;SDS011;8197;51.664;7.114;2023-11-21T10:55:38;43.53;;;19.07;;
16181;SDS011;8197;51.664;7.114;2023-11-21T11:00:43;30.53;;;11.50;;
16181;SDS011;8197;51.664;7.114;2023-11-21T11:05:47;37.37;;;15.97;;
16181;SDS011;8197;51.664;7.114;2023-11-21T11:10:54;35.20;;;14.40;;
16181;SDS011;8197;51.664;7.114;2023-11-21T11:16:01;32.33;;;12.50;;
16181;SDS011;8197;51.664;7.114;2023-11-21T11:21:07;53.10;;;15.70;;
16181;SDS011;8197;51.664;7.114;2023-11-21T11:26:24;38.27;;;11.80;;
16181;SDS011;8197;51.664;7.114;2023-11-21T11:31:37;37.80;;;16.70;;
16181;SDS011;8197;51.664;7.114;2023-11-21T11:36:54;36.87;;;16.40;;
16181;SDS011;8197;51.664;7.114;2023-11-21T11:42:06;39.60;;;18.17;;
16181;SDS011;8197;51.664;7.114;2023-11-21T11:47:14;32.40;;;11.23;;
16181;SDS011;8197;51.664;7.114;2023-11-21T11:52:32;38.00;;;15.77;;
16181;SDS011;8197;51.664;7.114;2023-11-21T11:57:41;27.10;;;9.10;;
16181;SDS011;8197;51.664;7.114;2023-11-21T12:02:47;27.73;;;10.40;;
16181;SDS011;8197;51.664;7.114;2023-11-21T12:07:51;31.10;;;11.07;;
16181;SDS011;8197;51.664;7.114;2023-11-21T12:12:55;28.30;;;9.63;;
16181;SDS011;8197;51.664;7.114;2023-11-21T12:18:01;35.10;;;13.63;;
16181;SDS011;8197;51.664;7.114;2023-11-21T12:23:05;27.87;;;10.63;;
16181;SDS011;8197;51.664;7.114;2023-11-21T12:28:10;33.13;;;10.47;;
16181;SDS011;8197;51.664;7.114;2023-11-21T12:33:15;27.30;;;9.87;;
16181;SDS011;8197;51.664;7.114;2023-11-21T12:38:18;26.60;;;8.33;;
16181;SDS011;8197;51.664;7.114;2023-11-21T12:43:21;28.90;;;8.60;;
16181;SDS011;8197;51.664;7.114;2023-11-21T12:48:27;22.57;;;7.70;;
16181;SDS011;8197;51.664;7.114;2023-11-21T12:53:31;27.60;;;9.60;;
16181;SDS011;8197;51.664;7.114;2023-11-21T12:58:38;32.60;;;10.83;;
16181;SDS011;8197;51.664;7.114;2023-11-21T13:03:44;24.57;;;8.00;;
16181;SDS011;8197;51.664;7.114;2023-11-21T13:08:49;25.80;;;8.67;;
16181;SDS011;8197;51.664;7.114;2023-11-21T13:13:52;28.03;;;10.10;;
16181;SDS011;8197;51.664;7.114;2023-11-21T13:18:57;28.00;;;10.93;;
16181;SDS011;8197;51.664;7.114;2023-11-21T13:23:59;30.27;;;12.23;;
16181;SDS011;8197;51.664;7.114;2023-11-21T13:29:02;35.43;;;11.37;;
16181;SDS011;8197;51.664;7.114;2023-11-21T13:34:07;30.10;;;10.63;;
16181;SDS011;8197;51.664;7.114;2023-11-21T13:39:10;29.00;;;10.17;;
16181;SDS011;8197;51.664;7.114;2023-11-21T13:44:17;28.60;;;10.50;;
16181;SDS011;8197;51.664;7.114;2023-11-21T13:49:30;30.60;;;11.50;;
16181;SDS011;8197;51.664;7.114;2023-11-21T13:54:37;27.53;;;9.37;;
16181;SDS011;8197;51.664;7.114;2023-11-21T13:59:40;27.53;;;10.37;;
16181;SDS011;8197;51.664;7.114;2023-11-21T14:04:46;26.67;;;10.30;;
16181;SDS011;8197;51.664;7.114;2023-11-21T14:09:56;29.63;;;11.47;;
16181;SDS011;8197;51.664;7.114;2023-11-21T14:15:00;25.07;;;8.57;;
16181;SDS011;8197;51.664;7.114;2023-11-21T14:20:06;28.37;;;9.80;;
16181;SDS011;8197;51.664;7.114;2023-11-21T14:25:16;28.20;;;8.87;;
16181;SDS011;8197;51.664;7.114;2023-11-21T14:30:20;24.10;;;7.90;;
16181;SDS011;8197;51.664;7.114;2023-11-21T14:35:25;22.37;;;7.20;;
16181;SDS011;8197;51.664;7.114;2023-11-21T14:40:28;24.83;;;8.70;;
16181;SDS011;8197;51.664;7.114;2023-11-21T14:45:34;21.00;;;6.23;;
16181;SDS011;8197;51.664;7.114;2023-11-21T14:50:38;20.20;;;6.50;;
16181;SDS011;8197;51.664;7.114;2023-11-21T14:55:55;20.10;;;6.67;;
16181;SDS011;8197;51.664;7.114;2023-11-21T15:00:59;21.07;;;6.63;;
16181;SDS011;8197;51.664;7.114;2023-11-21T15:06:04;22.20;;;7.50;;
16181;SDS011;8197;51.664;7.114;2023-11-21T15:11:20;19.63;;;5.33;;
16181;SDS011;8197;51.664;7.114;2023-11-21T15:16:30;27.30;;;10.37;;
16181;SDS011;8197;51.664;7.114;2023-11-21T15:21:35;24.80;;;9.00;;
16181;SDS011;8197;51.664;7.114;2023-11-21T15:26:38;22.77;;;7.20;;
16181;SDS011;8197;51.664;7.114;2023-11-21T15:31:41;26.77;;;8.93;;
16181;SDS011;8197;51.664;7.114;2023-11-21T15:36:51;23.43;;;8.30;;
16181;SDS011;8197;51.664;7.114;2023-11-21T15:41:55;25.87;;;8.77;;
16181;SDS011;8197;51.664;7.114;2023-11-21T15:46:58;25.70;;;9.77;;
16181;SDS011;8197;51.664;7.114;2023-11-21T15:52:04;25.43;;;8.57;;
16181;SDS011;8197;51.664;7.114;2023-11-21T15:57:11;23.33;;;8.50;;
16181;SDS011;8197;51.664;7.114;2023-11-21T16:02:15;22.40;;;8.00;;
16181;SDS011;8197;51.664;7.114;2023-11-21T16:07:20;21.23;;;6.33;;
16181;SDS011;8197;51.664;7.114;2023-11-21T16:12:22;22.73;;;8.00;;
16181;SDS011;8197;51.664;7.114;2023-11-21T16:17:25;24.57;;;8.73;;
16181;SDS011;8197;51.664;7.114;2023-11-21T16:22:30;26.27;;;8.57;;
16181;SDS011;8197;51.664;7.114;2023-11-21T16:27:36;23.20;;;7.10;;
16181;SDS011;8197;51.664;7.114;2023-11-21T16:32:39;21.67;;;7.10;;
16181;SDS011;8197;51.664;7.114;2023-11-21T16:37:43;29.23;;;8.17;;
16181;SDS011;8197;51.664;7.114;2023-11-21T16:42:49;23.10;;;7.93;;
16181;SDS011;8197;51.664;7.114;2023-11-21T16:47:51;26.93;;;9.43;;
16181;SDS011;8197;51.664;7.114;2023-11-21T16:52:56;33.63;;;16.10;;
16181;SDS011;8197;51.664;7.114;2023-11-21T16:57:59;23.10;;;8.77;;
16181;SDS011;8197;51.664;7.114;2023-11-21T17:03:02;22.93;;;7.50;;
16181;SDS011;8197;51.664;7.114;2023-11-21T17:08:07;24.30;;;8.30;;
16181;SDS011;8197;51.664;7.114;2023-11-21T17:13:12;21.77;;;7.40;;
16181;SDS011;8197;51.664;7.114;2023-11-21T17:18:15;25.07;;;8.07;;
16181;SDS011;8197;51.664;7.114;2023-11-21T17:23:19;22.27;;;6.23;;
16181;SDS011;8197;51.664;7.114;2023-11-21T17:28:22;20.63;;;6.33;;
16181;SDS011;8197;51.664;7.114;2023-11-21T17:33:25;19.27;;;5.47;;
16181;SDS011;8197;51.664;7.114;2023-11-21T17:38:29;22.40;;;6.40;;
16181;SDS011;8197;51.664;7.114;2023-11-21T17:43:33;22.30;;;6.67;;
16181;SDS011;8197;51.664;7.114;2023-11-21T17:48:40;21.77;;;6.93;;
16181;SDS011;8197;51.664;7.114;2023-11-21T17:53:45;22.07;;;6.13;;
16181;SDS011;8197;51.664;7.114;2023-11-21T17:58:49;23.43;;;6.80;;
16181;SDS011;8197;51.664;7.114;2023-11-21T18:03:55;20.60;;;6.63;;
16181;SDS011;8197;51.664;7.114;2023-11-21T18:09:01;22.83;;;6.80;;
16181;SDS011;8197;51.664;7.114;2023-11-21T18:14:04;20.00;;;6.13;;
16181;SDS011;8197;51.664;7.114;2023-11-21T18:19:11;19.73;;;5.07;;
16181;SDS011;8197;51.664;7.114;2023-11-21T18:24:15;22.07;;;7.63;;
16181;SDS011;8197;51.664;7.114;2023-11-21T18:29:19;20.47;;;6.37;;
16181;SDS011;8197;51.664;7.114;2023-11-21T18:34:21;20.87;;;6.10;;
16181;SDS011;8197;51.664;7.114;2023-11-21T18:39:27;22.97;;;6.73;;
16181;SDS011;8197;51.664;7.114;2023-11-21T18:44:30;25.47;;;8.73;;
16181;SDS011;8197;51.664;7.114;2023-11-21T18:49:44;22.47;;;8.30;;
16181;SDS011;8197;51.664;7.114;2023-11-21T18:54:49;24.30;;;8.73;;
16181;SDS011;8197;51.664;7.114;2023-11-21T18:59:52;27.93;;;8.60;;
16181;SDS011;8197;51.664;7.114;2023-11-21T19:04:55;22.47;;;6.13;;
16181;SDS011;8197;51.664;7.114;2023-11-21T19:10:02;26.77;;;8.57;;
16181;SDS011;8197;51.664;7.114;2023-11-21T19:15:06;22.27;;;7.60;;
16181;SDS011;8197;51.664;7.114;2023-11-21T19:20:10;23.30;;;6.63;;
16181;SDS011;8197;51.664;7.114;2023-11-21T19:25:15;25.33;;;9.00;;
16181;SDS011;8197;51.664;7.114;2023-11-21T19:30:19;27.13;;;10.27;;
16181;SDS011;8197;51.664;7.114;2023-11-21T19:35:22;22.60;;;6.53;;
16181;SDS011;8197;51.664;7.114;2023-11-21T19:40:27;23.47;;;9.07;;
16181;SDS011;8197;51.664;7.114;2023-11-21T19:45:30;25.60;;;10.43;;
16181;SDS011;8197;51.664;7.114;2023-11-21T19:50:33;20.90;;;7.10;;
16181;SDS011;8197;51.664;7.114;2023-11-21T19:55:37;25.17;;;9.87;;
16181;SDS011;8197;51.664;7.114;2023-11-21T20:00:40;25.17;;;10.17;;
16181;SDS011;8197;51.664;7.114;2023-11-21T20:05:44;25.53;;;10.30;;
16181;SDS011;8197;51.664;7.114;2023-11-21T20:10:49;25.40;;;10.40;;
16181;SDS011;8197;51.664;7.114;2023-11-21T20:15:52;23.93;;;9.40;;
16181;SDS011;8197;51.664;7.114;2023-11-21T20:20:54;25.00;;;9.60;;
16181;SDS011;8197;51.664;7.114;2023-11-21T20:25:59;26.20;;;9.07;;
16181;SDS011;8197;51.664;7.114;2023-11-21T20:31:02;23.47;;;8.50;;
16181;SDS011;8197;51.664;7.114;2023-11-21T20:36:06;23.53;;;9.40;;
16181;SDS011;8197;51.664;7.114;2023-11-21T20:41:11;29.40;;;8.93;;
16181;SDS011;8197;51.664;7.114;2023-11-21T20:46:16;23.30;;;7.37;;
16181;SDS011;8197;51.664;7.114;2023-11-21T20:51:19;23.97;;;8.37;;
16181;SDS011;8197;51.664;7.114;2023-11-21T20:56:24;24.70;;;9.53;;
16181;SDS011;8197;51.664;7.114;2023-11-21T21:01:27;25.00;;;10.40;;
16181;SDS011;8197;51.664;7.114;2023-11-21T21:06:30;26.40;;;11.33;;
16181;SDS011;8197;51.664;7.114;2023-11-21T21:11:34;25.87;;;10.00;;
16181;SDS011;8197;51.664;7.114;2023-11-21T21:16:38;27.43;;;11.07;;
16181;SDS011;8197;51.664;7.114;2023-11-21T21:21:43;24.47;;;10.60;;
16181;SDS011;8197;51.664;7.114;2023-11-21T21:26:48;26.20;;;10.30;;
16181;SDS011;8197;51.664;7.114;2023-11-21T21:31:51;25.17;;;10.47;;
16181;SDS011;8197;51.664;7.114;2023-11-21T21:36:54;21.90;;;8.50;;
16181;SDS011;8197;51.664;7.114;2023-11-21T21:41:59;24.50;;;10.67;;
16181;SDS011;8197;51.664;7.114;2023-11-21T21:47:01;21.03;;;7.37;;
16181;SDS011;8197;51.664;7.114;2023-11-21T21:52:05;22.17;;;7.20;;
16181;SDS011;8197;51.664;7.114;2023-11-21T21:57:09;25.00;;;8.23;;
16181;SDS011;8197;51.664;7.114;2023-11-21T22:02:12;22.37;;;7.33;;
16181;SDS011;8197;51.664;7.114;2023-11-21T22:07:15;20.27;;;6.90;;
16181;SDS011;8197;51.664;7.114;2023-11-21T22:12:19;23.80;;;9.20;;
16181;SDS011;8197;51.664;7.114;2023-11-21T22:17:22;23.53;;;8.70;;
16181;SDS011;8197;51.664;7.114;2023-11-21T22:22:25;22.73;;;9.27;;
16181;SDS011;8197;51.664;7.114;2023-11-21T22:27:30;24.10;;;11.20;;
16181;SDS011;8197;51.664;7.114;2023-11-21T22:32:33;24.87;;;9.57;;
16181;SDS011;8197;51.664;7.114;2023-11-21T22:37:36;27.00;;;10.37;;
16181;SDS011;8197;51.664;7.114;2023-11-21T22:42:41;24.87;;;9.40;;
16181;SDS011;8197;51.664;7.114;2023-11-21T22:47:43;22.70;;;7.37;;
16181;SDS011;8197;51.664;7.114;2023-11-21T22:52:47;21.07;;;6.33;;
16181;SDS011;8197;51.664;7.114;2023-11-21T22:57:52;26.70;;;6.20;;
16181;SDS011;8197;51.664;7.114;2023-11-21T23:02:55;20.00;;;5.33;;
16181;SDS011;8197;51.664;7.114;2023-11-21T23:07:59;20.90;;;4.90;;
16181;SDS011;8197;51.664;7.114;2023-11-21T23:13:04;19.10;;;4.77;;
16181;SDS011;8197;51.664;7.114;2023-11-21T23:18:09;21.57;;;5.30;;
16181;SDS011;8197;51.664;7.114;2023-11-21T23:23:12;18.67;;;4.63;;
16181;SDS011;8197;51.664;7.114;2023-11-21T23:28:16;18.20;;;4.70;;
16181;SDS011;8197;51.664;7.114;2023-11-21T23:33:20;20.03;;;5.60;;
16181;SDS011;8197;51.664;7.114;2023-11-21T23:38:26;19.00;;;5.00;;
16181;SDS011;8197;51.664;7.114;2023-11-21T23:43:31;19.83;;;5.40;;
16181;SDS011;8197;51.664;7.114;2023-11-21T23:48:34;18.50;;;4.30;;
16181;SDS011;8197;51.664;7.114;2023-11-21T23:53:37;24.10;;;4.17;;
16181;SDS011;8197;51.664;7.114;2023-11-21T23:58:41;20.90;;;4.03;;
